CheckWX is a tool to help pilots better visualize weather data.  It is not intended as a substitute for an official pre-flight weather briefing.

21:34:38 UTC

UTAM TAF
Mary Airport
Mary, Turkmenistan
TAF UTAM 201630Z 2018/2118 33014KT 3000 BR OVC007 SCT020CB 530009 TEMPO 2018/2106 27012KT 1000 BR RA BKN005

Mar-20@
18:00 UTC

Mar-20 @ 18:00 UTC

Mar-21@
18:00 UTC

Mar-21 @ 18:00 UTC

TAF UTAM 201630Z 2018/2118 33014KT 3000 BR OVC007 SCT020CB 530009
Wind
  • 330° at 14 KTS
Conditions
Mist
Cloud Levels
  • Overcast at 700' AGL
  • Scattered at 2,000' AGL
Turbulence
< Frequent moderate clear air turbulence expected at the surface extending to 9,000' AGL

Mar-20@
18:00 UTC

Mar-20 @ 18:00 UTC

Mar-21@
06:00 UTC

Mar-21 @ 06:00 UTC

TEMPO 2018/2106 27012KT 1000 BR RA BKN005

Temporary

Temporary Changes expected for less than half the time period

Wind
  • 270° at 12 KTS
Conditions
Mist, Rain
Cloud Levels
  • Broken at 500' AGL